Terminal Aerodrome Forecast
Issued by NWS Cleveland, OH

Home | Current Version | Previous Version | Graphics & Text | Print | Product List | Glossary On
Versions: 1 2 3 4 5 6 7 8 9 10 11 12 13 14 15 16 17 18
000
FTUS41 KCLE 152000 AAA
TAFCAK
TAF AMD
KCAK 152044Z 1521/1618 31012G20KT P6SM OVC020
      TEMPO 1521/1523 3SM -SHSN OVC015
     FM160000 31007KT P6SM BKN025
     FM161100 18003KT P6SM SCT050=

USA.gov is the U.S. government's official web portal to all federal, state and local government web resources and services.